createdAt,value
2023-04-02T00:01:00.906Z,9.70
2023-04-02T00:03:45.209Z,9.70
2023-04-02T00:06:35.120Z,9.68
2023-04-02T00:09:17.263Z,9.66
2023-04-02T00:11:48.748Z,9.67
2023-04-02T00:14:23.142Z,9.66
2023-04-02T00:16:52.721Z,9.62
2023-04-02T00:19:45.498Z,9.62
2023-04-02T00:22:19.314Z,9.64
2023-04-02T00:24:51.901Z,9.66
2023-04-02T00:27:21.347Z,9.64
2023-04-02T00:29:55.079Z,9.61
2023-04-02T00:32:28.639Z,9.59
2023-04-02T00:34:57.833Z,9.59
2023-04-02T00:37:30.094Z,9.57
2023-04-02T00:40:06.360Z,9.57
2023-04-02T00:42:35.934Z,9.58
2023-04-02T00:45:04.928Z,9.59
2023-04-02T00:47:37.413Z,9.61
2023-04-02T00:50:22.081Z,9.60
2023-04-02T00:52:53.317Z,9.57
2023-04-02T00:55:33.565Z,9.56
2023-04-02T00:58:04.404Z,9.58
2023-04-02T01:00:36.202Z,9.54
2023-04-02T01:03:16.726Z,9.55
2023-04-02T01:05:57.503Z,9.57
2023-04-02T01:08:38.566Z,9.59
2023-04-02T01:11:24.603Z,9.60
2023-04-02T01:14:01.850Z,9.58
2023-04-02T01:17:00.652Z,9.57
2023-04-02T01:20:01.954Z,9.51
2023-04-02T01:22:48.292Z,9.52
2023-04-02T01:25:27.014Z,9.50
2023-04-02T01:28:09.584Z,9.45
2023-04-02T01:30:38.000Z,9.43
2023-04-02T01:33:07.269Z,9.41
2023-04-02T01:35:41.472Z,9.41
2023-04-02T01:38:19.291Z,9.43
2023-04-02T01:41:03.980Z,9.44
2023-04-02T01:43:46.679Z,9.44
2023-04-02T01:46:31.972Z,9.42
2023-04-02T01:49:03.110Z,9.40
2023-04-02T01:51:34.247Z,9.37
2023-04-02T01:54:06.827Z,9.36
2023-04-02T01:56:35.641Z,9.34
2023-04-02T01:59:06.086Z,9.34
2023-04-02T02:01:52.016Z,9.30
2023-04-02T02:04:20.544Z,9.28
2023-04-02T02:06:49.842Z,9.29
2023-04-02T02:09:27.164Z,9.31
2023-04-02T02:11:57.539Z,9.28
2023-04-02T02:14:27.792Z,9.28
2023-04-02T02:17:00.201Z,9.25
2023-04-02T02:20:01.553Z,9.22
2023-04-02T02:22:34.168Z,9.23
2023-04-02T02:25:06.574Z,9.21
2023-04-02T02:27:48.717Z,9.20
2023-04-02T02:30:22.644Z,9.16
2023-04-02T02:33:16.823Z,9.11
2023-04-02T02:36:00.920Z,9.15
2023-04-02T02:38:40.797Z,9.12
2023-04-02T02:41:26.837Z,9.07
2023-04-02T02:44:05.011Z,8.99
2023-04-02T02:46:36.000Z,8.94
2023-04-02T02:49:06.098Z,8.94
2023-04-02T02:51:47.437Z,8.91
2023-04-02T02:54:19.887Z,8.86
2023-04-02T02:56:57.242Z,8.81
2023-04-02T02:59:26.445Z,8.81
2023-04-02T03:01:58.103Z,8.77
2023-04-02T03:04:30.603Z,8.76
2023-04-02T03:06:59.139Z,8.72
2023-04-02T03:09:43.145Z,8.68
2023-04-02T03:12:23.945Z,8.65
2023-04-02T03:15:36.760Z,8.69
2023-04-02T03:18:18.248Z,8.62
2023-04-02T03:20:55.990Z,8.59
2023-04-02T03:23:44.437Z,8.59
2023-04-02T03:26:37.803Z,8.61
2023-04-02T03:29:22.774Z,8.61
2023-04-02T03:31:58.050Z,8.61
2023-04-02T03:34:34.641Z,8.60
2023-04-02T03:37:17.530Z,8.61
2023-04-02T03:39:59.939Z,8.61
2023-04-02T03:42:38.037Z,8.62
2023-04-02T03:45:16.161Z,8.65
2023-04-02T03:47:50.549Z,8.73
2023-04-02T03:50:38.396Z,8.75
2023-04-02T03:53:08.798Z,8.74
2023-04-02T03:55:38.785Z,8.70
2023-04-02T03:58:18.133Z,8.68
2023-04-02T04:01:03.527Z,8.64
2023-04-02T04:03:47.188Z,8.63
2023-04-02T04:06:29.701Z,8.60
2023-04-02T04:09:18.966Z,8.58
2023-04-02T04:11:51.657Z,8.61
2023-04-02T04:14:29.861Z,8.62
2023-04-02T04:17:09.947Z,8.58
2023-04-02T04:19:45.546Z,8.53
2023-04-02T04:22:30.312Z,8.49
2023-04-02T04:25:05.913Z,8.50
2023-04-02T04:27:56.743Z,8.55
2023-04-02T04:30:31.172Z,8.57
2023-04-02T04:33:15.410Z,8.56
2023-04-02T04:35:57.488Z,8.51
2023-04-02T04:38:39.703Z,8.52
2023-04-02T04:41:18.657Z,8.50
2023-04-02T04:43:57.093Z,8.50
2023-04-02T04:46:36.000Z,8.50
2023-04-02T04:49:20.002Z,8.46
2023-04-02T04:51:50.394Z,8.46
2023-04-02T04:54:20.101Z,8.46
2023-04-02T04:57:01.482Z,8.43
2023-04-02T04:59:41.470Z,8.43
2023-04-02T05:02:24.682Z,8.45
2023-04-02T05:04:53.389Z,8.44
2023-04-02T05:07:28.356Z,8.40
2023-04-02T05:10:17.425Z,8.39
2023-04-02T05:12:57.260Z,8.36
2023-04-02T05:16:09.810Z,8.37
2023-04-02T05:18:52.319Z,8.39
2023-04-02T05:21:34.422Z,8.43
2023-04-02T05:24:20.974Z,8.46
2023-04-02T05:26:52.074Z,8.48
2023-04-02T05:29:29.616Z,8.54
2023-04-02T05:32:04.204Z,8.56
2023-04-02T05:34:37.319Z,8.58
2023-04-02T05:37:07.260Z,8.59
2023-04-02T05:39:35.955Z,8.62
2023-04-02T05:42:11.163Z,8.67
2023-04-02T05:45:18.236Z,8.69
2023-04-02T05:47:52.146Z,8.72
2023-04-02T05:50:30.928Z,8.75
2023-04-02T05:53:23.144Z,8.76
2023-04-02T05:56:02.410Z,8.77
2023-04-02T05:58:37.178Z,8.75
2023-04-02T06:01:47.394Z,8.73
2023-04-02T06:04:30.069Z,8.75
2023-04-02T06:07:12.320Z,8.72
2023-04-02T06:09:58.044Z,8.69
2023-04-02T06:12:35.625Z,8.70
2023-04-02T06:15:18.827Z,8.69
2023-04-02T06:17:50.855Z,8.71
2023-04-02T06:20:21.306Z,8.76
2023-04-02T06:22:59.762Z,8.81
2023-04-02T06:25:35.434Z,8.89
2023-04-02T06:28:07.161Z,8.96
2023-04-02T06:30:39.373Z,8.99
2023-04-02T06:33:09.124Z,8.99
2023-04-02T06:35:41.108Z,8.97
2023-04-02T06:38:25.724Z,9.01
2023-04-02T06:40:59.017Z,9.04
2023-04-02T06:44:09.437Z,9.03
2023-04-02T06:47:00.166Z,9.02
2023-04-02T06:49:38.014Z,9.02
2023-04-02T06:52:28.410Z,8.98
2023-04-02T06:54:59.887Z,8.97
2023-04-02T06:57:28.004Z,8.97
2023-04-02T06:59:56.170Z,9.00
2023-04-02T07:02:33.383Z,8.98
2023-04-02T07:05:06.379Z,9.00
2023-04-02T07:07:36.945Z,9.00
2023-04-02T07:10:09.435Z,9.02
2023-04-02T07:12:38.913Z,9.06
2023-04-02T07:15:07.608Z,9.16
2023-04-02T07:17:36.452Z,9.30
2023-04-02T07:20:04.748Z,9.38
2023-04-02T07:22:32.664Z,9.45
2023-04-02T07:25:05.321Z,9.49
2023-04-02T07:27:33.420Z,9.50
2023-04-02T07:30:01.409Z,9.56
2023-04-02T07:32:29.415Z,9.63
2023-04-02T07:34:57.502Z,9.61
2023-04-02T07:37:25.574Z,9.64
2023-04-02T07:39:53.537Z,9.70
2023-04-02T07:42:21.662Z,9.71
2023-04-02T07:44:49.709Z,9.69
2023-04-02T07:47:17.961Z,9.71
2023-04-02T07:49:46.131Z,9.74
2023-04-02T07:52:14.064Z,9.78
2023-04-02T07:54:42.002Z,9.83
2023-04-02T07:57:10.009Z,9.90
2023-04-02T07:59:41.507Z,9.88
2023-04-02T08:02:23.212Z,9.89
2023-04-02T08:04:51.797Z,9.92
2023-04-02T08:07:19.745Z,9.96
2023-04-02T08:09:47.644Z,9.97
2023-04-02T08:12:15.832Z,9.92
2023-04-02T08:14:43.816Z,9.93
2023-04-02T08:17:11.748Z,10.02
2023-04-02T08:19:53.765Z,10.08
2023-04-02T08:22:23.030Z,10.15
2023-04-02T08:24:51.020Z,10.17
2023-04-02T08:27:19.107Z,10.20
2023-04-02T08:29:47.188Z,10.25
2023-04-02T08:32:16.337Z,10.32
2023-04-02T08:34:45.481Z,10.39
2023-04-02T08:37:14.132Z,10.47
2023-04-02T08:39:42.221Z,10.50
2023-04-02T08:42:41.443Z,10.50
2023-04-02T08:45:33.902Z,10.52
2023-04-02T08:48:03.571Z,10.54
2023-04-02T08:50:35.128Z,10.56
2023-04-02T08:53:08.164Z,10.58
2023-04-02T08:56:08.616Z,10.63
2023-04-02T08:58:43.023Z,10.67
2023-04-02T09:01:42.629Z,10.67
2023-04-02T09:04:20.927Z,10.65
2023-04-02T09:06:52.512Z,10.69
2023-04-02T09:09:22.537Z,10.72
2023-04-02T09:11:59.103Z,10.70
2023-04-02T09:14:38.560Z,10.72
2023-04-02T09:17:23.310Z,10.73
2023-04-02T09:19:54.218Z,10.68
2023-04-02T09:22:27.384Z,10.66
2023-04-02T09:24:58.054Z,10.66
2023-04-02T09:27:32.222Z,10.70
2023-04-02T09:30:18.427Z,10.76
2023-04-02T09:32:51.887Z,10.84
2023-04-02T09:35:26.509Z,10.92
2023-04-02T09:38:07.305Z,10.97
2023-04-02T09:40:51.650Z,10.98
2023-04-02T09:43:29.085Z,11.03
2023-04-02T09:46:06.542Z,11.05
2023-04-02T09:48:35.819Z,11.04
2023-04-02T09:51:12.714Z,11.06
2023-04-02T09:53:44.734Z,11.06
2023-04-02T09:56:21.879Z,11.06
2023-04-02T09:59:06.522Z,11.10
2023-04-02T10:01:40.033Z,11.15
2023-04-02T10:04:34.753Z,11.16
2023-04-02T10:07:09.595Z,11.19
2023-04-02T10:09:38.540Z,11.21
2023-04-02T10:12:12.545Z,11.21
2023-04-02T10:14:45.681Z,11.22
2023-04-02T10:17:30.932Z,11.26
2023-04-02T10:20:11.576Z,11.23
2023-04-02T10:22:40.461Z,11.25
2023-04-02T10:25:16.287Z,11.30
2023-04-02T10:28:09.117Z,11.32
2023-04-02T10:30:57.178Z,11.33
2023-04-02T10:33:33.192Z,11.35
2023-04-02T10:36:09.040Z,11.39
2023-04-02T10:38:51.413Z,11.48
2023-04-02T10:41:31.222Z,11.51
2023-04-02T10:44:20.278Z,11.51
2023-04-02T10:47:00.994Z,11.50
2023-04-02T10:49:58.231Z,11.49
2023-04-02T10:52:34.799Z,11.45
2023-04-02T10:55:25.943Z,11.46
2023-04-02T10:57:57.281Z,11.45
2023-04-02T11:00:29.062Z,11.46
2023-04-02T11:03:00.268Z,11.48
2023-04-02T11:05:37.597Z,11.49
2023-04-02T11:08:29.985Z,11.48
2023-04-02T11:11:32.391Z,11.51
2023-04-02T11:14:17.686Z,11.54
2023-04-02T11:16:48.323Z,11.57
2023-04-02T11:19:16.704Z,11.58
2023-04-02T11:22:04.364Z,11.60
2023-04-02T11:24:42.355Z,11.61
2023-04-02T11:27:10.499Z,11.61
2023-04-02T11:29:42.725Z,11.62
2023-04-02T11:32:33.775Z,11.61
2023-04-02T11:35:06.501Z,11.58
2023-04-02T11:37:44.788Z,11.56
2023-04-02T11:40:13.982Z,11.55
2023-04-02T11:42:44.136Z,11.51
2023-04-02T11:45:24.130Z,11.45
2023-04-02T11:48:01.427Z,11.48
2023-04-02T11:50:38.830Z,11.50
2023-04-02T11:53:13.598Z,11.55
2023-04-02T11:55:42.702Z,11.56
2023-04-02T11:58:22.935Z,11.56
2023-04-02T12:00:56.931Z,11.59
2023-04-02T12:03:29.863Z,11.61
2023-04-02T12:06:13.524Z,11.55
2023-04-02T12:08:57.914Z,11.56
2023-04-02T12:11:44.796Z,11.56
2023-04-02T12:14:37.729Z,11.61
2023-04-02T12:17:24.225Z,11.66
2023-04-02T12:19:55.417Z,11.74
2023-04-02T12:22:27.891Z,11.84
2023-04-02T12:25:00.475Z,11.88
2023-04-02T12:27:29.851Z,11.92
2023-04-02T12:30:22.370Z,12.01
2023-04-02T12:32:50.487Z,12.08
2023-04-02T12:35:29.516Z,12.13
2023-04-02T12:37:58.293Z,12.17
2023-04-02T12:40:27.301Z,12.18
2023-04-02T12:42:56.106Z,12.24
2023-04-02T12:45:31.160Z,12.33
2023-04-02T12:48:03.160Z,12.46
2023-04-02T12:50:35.400Z,12.55
2023-04-02T12:53:03.732Z,12.56
2023-04-02T12:55:33.729Z,12.56
2023-04-02T12:58:01.673Z,12.67
2023-04-02T13:00:31.889Z,12.78
2023-04-02T13:03:05.849Z,12.82
2023-04-02T13:05:54.998Z,12.80
2023-04-02T13:08:42.922Z,12.82
2023-04-02T13:11:10.800Z,12.84
2023-04-02T13:13:41.023Z,12.90
2023-04-02T13:16:15.059Z,12.95
2023-04-02T13:18:45.470Z,12.99
2023-04-02T13:21:16.451Z,13.00
2023-04-02T13:23:46.179Z,13.03
2023-04-02T13:26:17.508Z,13.09
2023-04-02T13:29:19.526Z,13.12
2023-04-02T13:31:48.404Z,13.12
2023-04-02T13:34:17.920Z,13.16
2023-04-02T13:36:47.168Z,13.15
2023-04-02T13:39:19.392Z,13.17
2023-04-02T13:41:52.121Z,13.21
2023-04-02T13:44:26.023Z,13.31
2023-04-02T13:46:55.054Z,13.41
2023-04-02T13:49:25.137Z,13.49
2023-04-02T13:52:00.474Z,13.49
2023-04-02T13:54:53.038Z,13.47
2023-04-02T13:57:21.455Z,13.35
2023-04-02T13:59:49.490Z,13.31
2023-04-02T14:02:20.490Z,13.27
2023-04-02T14:04:54.759Z,13.23
2023-04-02T14:07:50.270Z,13.24
2023-04-02T14:10:22.198Z,13.29
2023-04-02T14:13:05.032Z,13.32
2023-04-02T14:15:48.871Z,13.36
2023-04-02T14:18:28.922Z,13.38
2023-04-02T14:21:29.215Z,13.47
2023-04-02T14:24:18.926Z,13.48
2023-04-02T14:27:21.889Z,13.44
2023-04-02T14:30:07.782Z,13.50
2023-04-02T14:32:59.197Z,13.53
2023-04-02T14:35:46.340Z,13.58
2023-04-02T14:38:37.155Z,13.58
2023-04-02T14:41:13.969Z,13.60
2023-04-02T14:43:50.697Z,13.59
2023-04-02T14:46:18.597Z,13.59
2023-04-02T14:48:54.526Z,13.57
2023-04-02T14:51:26.568Z,13.59
2023-04-02T14:54:04.380Z,13.59
2023-04-02T14:56:39.705Z,13.62
2023-04-02T14:59:38.615Z,13.66
2023-04-02T15:02:22.290Z,13.77
2023-04-02T15:05:02.857Z,13.82
2023-04-02T15:07:41.766Z,13.83
2023-04-02T15:10:44.572Z,13.78
2023-04-02T15:13:21.384Z,13.73
2023-04-02T15:15:56.594Z,13.76
2023-04-02T15:18:25.645Z,13.80
2023-04-02T15:21:16.759Z,13.87
2023-04-02T15:24:27.321Z,13.92
2023-04-02T15:26:58.274Z,13.95
2023-04-02T15:29:29.728Z,13.95
2023-04-02T15:32:32.110Z,13.87
2023-04-02T15:35:11.010Z,13.81
2023-04-02T15:38:03.725Z,13.79
2023-04-02T15:41:02.915Z,13.76
2023-04-02T15:43:41.118Z,13.77
2023-04-02T15:46:08.960Z,13.81
2023-04-02T15:49:00.700Z,13.77
2023-04-02T15:51:31.403Z,13.76
2023-04-02T15:54:22.050Z,13.78
2023-04-02T15:57:12.411Z,13.79
2023-04-02T16:00:09.000Z,13.79
2023-04-02T16:02:42.882Z,13.77
2023-04-02T16:05:38.648Z,13.75
2023-04-02T16:08:13.325Z,13.76
2023-04-02T16:10:43.051Z,13.72
2023-04-02T16:13:19.461Z,13.71
2023-04-02T16:16:27.939Z,13.67
2023-04-02T16:19:22.858Z,13.65
2023-04-02T16:22:01.777Z,13.63
2023-04-02T16:24:29.647Z,13.61
2023-04-02T16:27:21.413Z,13.54
2023-04-02T16:29:55.814Z,13.47
2023-04-02T16:32:43.750Z,13.46
2023-04-02T16:38:14.780Z,13.33
2023-04-02T16:41:19.753Z,13.26
2023-04-02T16:44:05.891Z,13.19
2023-04-02T16:46:53.289Z,13.15
2023-04-02T16:49:36.310Z,13.11
2023-04-02T16:52:08.388Z,13.06
2023-04-02T16:54:51.512Z,13.02
2023-04-02T16:57:40.914Z,13.01
2023-04-02T17:00:34.404Z,13.00
2023-04-02T17:03:21.257Z,12.99
2023-04-02T17:06:02.187Z,12.99
2023-04-02T17:08:38.643Z,12.97
2023-04-02T17:11:17.377Z,12.93
2023-04-02T17:14:06.410Z,12.89
2023-04-02T17:16:46.598Z,12.85
2023-04-02T17:19:16.898Z,12.82
2023-04-02T17:21:48.083Z,12.79
2023-04-02T17:24:38.035Z,12.77
2023-04-02T17:27:30.416Z,12.73
2023-04-02T17:30:07.912Z,12.69
2023-04-02T17:32:37.051Z,12.66
2023-04-02T17:35:32.147Z,12.63
2023-04-02T17:38:31.401Z,12.59
2023-04-02T17:41:21.192Z,12.55
2023-04-02T17:44:05.316Z,12.52
2023-04-02T17:46:48.872Z,12.46
2023-04-02T17:49:36.804Z,12.43
2023-04-02T17:52:26.322Z,12.41
2023-04-02T17:55:40.694Z,12.39
2023-04-02T17:58:19.421Z,12.34
2023-04-02T18:01:27.925Z,12.28
2023-04-02T18:04:16.919Z,12.26
2023-04-02T18:07:06.217Z,12.25
2023-04-02T18:09:37.335Z,12.23
2023-04-02T18:12:33.438Z,12.19
2023-04-02T18:15:07.051Z,12.18
2023-04-02T18:17:58.557Z,12.18
2023-04-02T18:20:45.987Z,12.19
2023-04-02T18:23:32.623Z,12.21
2023-04-02T18:26:18.859Z,12.22
2023-04-02T18:29:24.354Z,12.22
2023-04-02T18:32:20.357Z,12.23
2023-04-02T18:34:48.599Z,12.21
2023-04-02T18:37:57.830Z,12.21
2023-04-02T18:40:38.835Z,12.20
2023-04-02T18:43:33.991Z,12.16
2023-04-02T18:46:25.622Z,12.11
2023-04-02T18:49:23.505Z,12.01
2023-04-02T18:52:09.615Z,11.92
2023-04-02T18:54:46.649Z,11.83
2023-04-02T18:57:23.895Z,11.76
2023-04-02T19:00:02.092Z,11.68
2023-04-02T19:02:42.905Z,11.60
2023-04-02T19:05:26.575Z,11.50
2023-04-02T19:08:19.318Z,11.41
2023-04-02T19:10:54.934Z,11.31
2023-04-02T19:13:22.996Z,11.19
2023-04-02T19:16:17.877Z,11.14
2023-04-02T19:19:11.500Z,11.06
2023-04-02T19:21:54.266Z,10.96
2023-04-02T19:24:41.615Z,10.89
2023-04-02T19:27:27.360Z,10.86
2023-04-02T19:30:26.372Z,10.79
2023-04-02T19:33:15.811Z,10.73
2023-04-02T19:35:53.875Z,10.65
2023-04-02T19:38:54.296Z,10.58
2023-04-02T19:41:47.918Z,10.54
2023-04-02T19:44:16.986Z,10.45
2023-04-02T19:46:45.867Z,10.39
2023-04-02T19:49:33.932Z,10.36
2023-04-02T19:52:01.968Z,10.29
2023-04-02T19:54:30.107Z,10.26
2023-04-02T19:56:58.351Z,10.20
2023-04-02T19:59:26.432Z,10.06
2023-04-02T20:01:54.493Z,9.99
2023-04-02T20:04:22.306Z,9.91
2023-04-02T20:06:50.556Z,9.82
2023-04-02T20:09:18.513Z,9.78
2023-04-02T20:11:46.718Z,9.76
2023-04-02T20:14:14.662Z,9.71
2023-04-02T20:16:44.509Z,9.66
2023-04-02T20:19:13.681Z,9.61
2023-04-02T20:21:41.630Z,9.56
2023-04-02T20:24:09.667Z,9.49
2023-04-02T20:26:37.654Z,9.44
2023-04-02T20:29:05.898Z,9.40
2023-04-02T20:31:34.299Z,9.35
2023-04-02T20:34:05.688Z,9.31
2023-04-02T20:36:34.041Z,9.27
2023-04-02T20:39:02.223Z,9.22
2023-04-02T20:41:30.380Z,9.18
2023-04-02T20:43:58.726Z,9.16
2023-04-02T20:46:29.248Z,9.12
2023-04-02T20:48:57.762Z,9.08
2023-04-02T20:51:25.974Z,9.02
2023-04-02T20:53:57.893Z,8.93
2023-04-02T20:56:28.149Z,8.83
2023-04-02T20:58:56.370Z,8.77
2023-04-02T21:01:26.895Z,8.70
2023-04-02T21:04:02.817Z,8.62
2023-04-02T21:06:34.105Z,8.52
2023-04-02T21:09:08.202Z,8.50
2023-04-02T21:11:37.451Z,8.47
2023-04-02T21:14:05.570Z,8.46
2023-04-02T21:16:34.360Z,8.42
2023-04-02T21:19:05.915Z,8.42
2023-04-02T21:21:36.291Z,8.36
2023-04-02T21:24:06.751Z,8.34
2023-04-02T21:26:37.791Z,8.29
2023-04-02T21:29:06.284Z,8.27
2023-04-02T21:31:37.841Z,8.25
2023-04-02T21:34:07.503Z,8.21
2023-04-02T21:36:39.578Z,8.18
2023-04-02T21:39:10.146Z,8.16
2023-04-02T21:41:41.432Z,8.12
2023-04-02T21:44:13.996Z,8.10
2023-04-02T21:46:44.145Z,8.07
2023-04-02T21:49:17.351Z,8.06
2023-04-02T21:51:46.889Z,8.05
2023-04-02T21:54:15.650Z,8.01
2023-04-02T21:56:45.993Z,8.01
2023-04-02T21:59:15.833Z,7.98
2023-04-02T22:01:47.471Z,7.95
2023-04-02T22:04:22.263Z,7.92
2023-04-02T22:06:52.368Z,7.89
2023-04-02T22:09:23.535Z,7.88
2023-04-02T22:11:54.697Z,7.87
2023-04-02T22:14:23.388Z,7.89
2023-04-02T22:16:52.161Z,7.84
2023-04-02T22:19:21.424Z,7.82
2023-04-02T22:21:50.174Z,7.80
2023-04-02T22:24:18.974Z,7.78
2023-04-02T22:26:47.045Z,7.73
2023-04-02T22:29:16.042Z,7.68
2023-04-02T22:31:44.584Z,7.69
2023-04-02T22:34:12.745Z,7.64
2023-04-02T22:36:41.439Z,7.67
2023-04-02T22:39:12.138Z,7.64
2023-04-02T22:41:40.564Z,7.62
2023-04-02T22:44:14.189Z,7.61
2023-04-02T22:46:42.331Z,7.62
2023-04-02T22:49:11.797Z,7.59
2023-04-02T22:51:39.816Z,7.54
2023-04-02T22:54:07.772Z,7.53
2023-04-02T22:56:37.572Z,7.52
2023-04-02T22:59:05.751Z,7.45
2023-04-02T23:01:35.511Z,7.48
2023-04-02T23:04:05.223Z,7.48
2023-04-02T23:06:33.299Z,7.47
2023-04-02T23:09:01.149Z,7.48
2023-04-02T23:11:29.187Z,7.46
2023-04-02T23:13:58.448Z,7.41
2023-04-02T23:16:28.999Z,7.37
2023-04-02T23:18:57.372Z,7.35
2023-04-02T23:21:26.255Z,7.38
2023-04-02T23:23:54.940Z,7.37
2023-04-02T23:26:29.343Z,7.34
2023-04-02T23:28:59.331Z,7.35
2023-04-02T23:31:28.169Z,7.37
2023-04-02T23:33:56.183Z,7.35
2023-04-02T23:36:27.345Z,7.33
2023-04-02T23:38:56.842Z,7.33
2023-04-02T23:41:27.193Z,7.31
2023-04-02T23:43:57.004Z,7.31
2023-04-02T23:46:25.964Z,7.30
2023-04-02T23:48:55.000Z,7.28
2023-04-02T23:51:24.071Z,7.26
2023-04-02T23:53:53.666Z,7.24
2023-04-02T23:56:22.487Z,7.22
2023-04-02T23:58:51.390Z,7.19
